Time;durP1;ratioP1;P1;durP2;ratioP2;P2;SDS_P1;SDS_P2;PMS_P1;PMS_P2;Temp;Humidity;BMP_temperature;BMP_pressure;BME280_temperature;BME280_humidity;BME280_pressure;Samples;Min_cycle;Max_cycle;Signal;HPM_P1;HPM_P2
2021/11/22 00:02:02;;;;;;;36.17;15.80;;;5.70;93.70;;;;;;5090568;28;20251;-76
2021/11/22 00:04:28;;;;;;;26.90;13.90;;;5.70;93.70;;;;;;5090503;28;20247;-75
2021/11/22 00:06:54;;;;;;;32.80;14.43;;;5.70;93.70;;;;;;5086330;28;20465;-75
2021/11/22 00:09:20;;;;;;;32.60;14.50;;;5.70;93.80;;;;;;5091290;28;20211;-75
2021/11/22 00:11:48;;;;;;;39.40;17.27;;;5.80;93.60;;;;;;5092655;28;20713;-75
2021/11/22 00:14:14;;;;;;;34.40;14.83;;;5.80;93.60;;;;;;5091241;28;20187;-76
2021/11/22 00:16:40;;;;;;;32.43;15.37;;;5.80;93.50;;;;;;5091878;28;20425;-76
2021/11/22 00:19:05;;;;;;;26.30;13.83;;;5.80;93.40;;;;;;5090561;28;20211;-75
2021/11/22 00:21:31;;;;;;;38.40;17.70;;;5.80;93.50;;;;;;5089721;28;20206;-76
2021/11/22 00:23:57;;;;;;;28.90;14.73;;;5.80;93.70;;;;;;5090091;28;20211;-76
2021/11/22 00:26:23;;;;;;;28.20;15.00;;;5.90;93.60;;;;;;5093818;28;20424;-75
2021/11/22 00:28:48;;;;;;;36.20;16.00;;;6.00;93.40;;;;;;5090966;28;20260;-75
2021/11/22 00:31:14;;;;;;;31.63;14.80;;;6.00;93.20;;;;;;5090707;28;20197;-75
2021/11/22 00:33:43;;;;;;;32.07;14.00;;;5.90;93.10;;;;;;5088767;28;20309;-76
2021/11/22 00:36:09;;;;;;;40.03;18.03;;;5.90;93.10;;;;;;5090811;28;20194;-76
2021/11/22 00:38:35;;;;;;;32.93;14.33;;;5.90;93.20;;;;;;5090257;28;20457;-77
2021/11/22 00:41:01;;;;;;;34.77;16.27;;;6.00;93.20;;;;;;5096839;28;20440;-75
2021/11/22 00:43:26;;;;;;;32.87;15.70;;;6.00;93.00;;;;;;5099499;28;20610;-76
2021/11/22 00:45:54;;;;;;;36.43;16.60;;;5.90;92.90;;;;;;5091612;28;20480;-77
2021/11/22 00:48:21;;;;;;;38.60;16.40;;;5.90;92.90;;;;;;5104683;28;20305;-75
2021/11/22 00:50:52;;;;;;;38.67;14.67;;;6.00;93.00;;;;;;5101375;28;20432;-74
2021/11/22 00:53:18;;;;;;;34.70;15.67;;;6.00;92.90;;;;;;5089635;28;20544;-76
2021/11/22 00:55:44;;;;;;;36.33;16.47;;;6.00;92.80;;;;;;5087591;28;20559;-76
2021/11/22 00:58:10;;;;;;;36.60;17.00;;;6.00;92.80;;;;;;5082668;28;20438;-76
2021/11/22 01:00:36;;;;;;;36.73;14.90;;;6.00;92.80;;;;;;5089841;28;20914;-75
2021/11/22 01:03:03;;;;;;;37.77;15.83;;;6.00;92.80;;;;;;5089048;28;20421;-75
2021/11/22 01:05:29;;;;;;;35.77;15.10;;;6.00;92.90;;;;;;5081628;28;20513;-74
2021/11/22 01:07:55;;;;;;;39.20;15.67;;;6.00;92.90;;;;;;5081329;28;20465;-75
2021/11/22 01:10:22;;;;;;;32.93;15.67;;;6.00;92.90;;;;;;5089558;28;20478;-75
2021/11/22 01:12:49;;;;;;;37.90;16.87;;;6.00;92.90;;;;;;5089055;28;20246;-76
2021/11/22 01:15:19;;;;;;;40.00;16.23;;;6.00;93.00;;;;;;5088413;28;20478;-75
2021/11/22 01:17:46;;;;;;;39.87;15.47;;;6.00;93.00;;;;;;5085591;28;20440;-75
2021/11/22 01:20:16;;;;;;;44.87;18.03;;;6.00;92.90;;;;;;5093457;28;20417;-76
2021/11/22 01:22:41;;;;;;;44.37;17.63;;;6.00;93.00;;;;;;5093252;28;20431;-76
2021/11/22 01:25:09;;;;;;;39.67;15.23;;;5.90;92.90;;;;;;5092723;28;20421;-74
2021/11/22 01:27:35;;;;;;;45.60;17.90;;;5.80;93.30;;;;;;5092591;28;20476;-77
2021/11/22 01:30:04;;;;;;;41.83;17.63;;;5.80;93.50;;;;;;5092838;28;20431;-76
2021/11/22 01:32:30;;;;;;;38.00;18.10;;;5.70;93.70;;;;;;5084692;28;20469;-75
2021/11/22 01:34:56;;;;;;;37.60;16.40;;;5.70;93.90;;;;;;5091774;28;20436;-76
2021/11/22 01:37:22;;;;;;;46.57;19.17;;;5.70;94.00;;;;;;5091910;28;20175;-76
2021/11/22 01:39:48;;;;;;;43.30;17.80;;;5.70;94.10;;;;;;5092711;28;20183;-75
2021/11/22 01:42:13;;;;;;;44.30;17.43;;;5.70;94.10;;;;;;5092747;28;20653;-76
2021/11/22 01:44:39;;;;;;;40.57;18.10;;;5.70;93.90;;;;;;5088511;28;20461;-75
2021/11/22 01:47:05;;;;;;;43.10;17.60;;;5.70;93.90;;;;;;5089958;28;20664;-76
2021/11/22 01:49:31;;;;;;;48.30;19.00;;;5.70;94.10;;;;;;5092780;28;20202;-75
2021/11/22 01:51:56;;;;;;;45.37;18.47;;;5.70;94.10;;;;;;5091313;28;20219;-75
2021/11/22 01:54:22;;;;;;;45.60;19.67;;;5.70;94.20;;;;;;5091271;28;20430;-76
2021/11/22 01:56:48;;;;;;;44.13;17.10;;;5.70;94.30;;;;;;5092458;28;20184;-75
2021/11/22 01:59:17;;;;;;;47.90;18.20;;;5.80;94.20;;;;;;5086515;28;20437;-76
2021/11/22 02:01:45;;;;;;;42.67;19.07;;;5.80;94.20;;;;;;5092989;28;20190;-76
2021/11/22 02:04:11;;;;;;;47.27;19.13;;;5.90;94.10;;;;;;5091289;28;20473;-76
2021/11/22 02:06:37;;;;;;;44.60;18.80;;;5.80;94.10;;;;;;5088246;28;20429;-75
2021/11/22 02:09:04;;;;;;;46.17;18.40;;;5.90;94.10;;;;;;5088752;28;20517;-76
2021/11/22 02:11:30;;;;;;;45.07;18.67;;;5.80;94.10;;;;;;5084253;28;20436;-76
2021/11/22 02:13:56;;;;;;;48.50;19.00;;;5.80;94.30;;;;;;5090007;28;20433;-75
2021/11/22 02:16:22;;;;;;;40.20;17.27;;;5.70;94.50;;;;;;5092052;28;20810;-76
2021/11/22 02:18:48;;;;;;;40.63;18.30;;;5.70;94.70;;;;;;5092809;28;20684;-76
2021/11/22 02:21:14;;;;;;;40.57;17.33;;;5.70;94.70;;;;;;5094400;28;20513;-76
2021/11/22 02:23:42;;;;;;;44.90;17.53;;;5.70;94.70;;;;;;5094705;28;20183;-76
2021/11/22 02:26:08;;;;;;;42.60;17.43;;;5.70;94.80;;;;;;5094493;28;20457;-75
2021/11/22 02:28:34;;;;;;;42.20;17.70;;;5.80;94.90;;;;;;5090947;28;20508;-75
2021/11/22 02:31:00;;;;;;;42.33;18.77;;;5.70;94.80;;;;;;5097287;28;20193;-77
2021/11/22 02:33:27;;;;;;;44.40;18.30;;;5.70;94.70;;;;;;5094321;28;20465;-76
2021/11/22 02:35:58;;;;;;;38.53;17.90;;;5.60;94.90;;;;;;5092394;28;20184;-76
2021/11/22 02:38:33;;;;;;;53.03;20.07;;;5.50;95.20;;;;;;5092298;28;20457;-76
2021/11/22 02:41:00;;;;;;;43.20;17.80;;;5.50;95.40;;;;;;5092246;28;20448;-76
2021/11/22 02:43:28;;;;;;;37.43;16.40;;;5.50;95.70;;;;;;5091037;28;20421;-76
2021/11/22 02:45:54;;;;;;;40.93;18.20;;;5.60;95.80;;;;;;5091618;28;20465;-76
2021/11/22 02:48:20;;;;;;;44.13;18.30;;;5.60;95.70;;;;;;5093212;28;20445;-75
2021/11/22 02:50:46;;;;;;;38.93;18.57;;;5.70;95.60;;;;;;5091239;28;20435;-75
2021/11/22 02:53:12;;;;;;;44.87;18.90;;;5.70;95.60;;;;;;5091609;28;20479;-75
2021/11/22 02:55:38;;;;;;;34.57;17.90;;;5.70;95.60;;;;;;5089813;28;20541;-75
2021/11/22 02:58:05;;;;;;;41.10;17.43;;;5.70;95.40;;;;;;5087296;28;20521;-76
2021/11/22 03:00:33;;;;;;;46.00;20.50;;;5.60;95.30;;;;;;5092742;28;20187;-76
2021/11/22 03:02:59;;;;;;;55.17;19.80;;;5.50;95.40;;;;;;5092780;28;20432;-76
2021/11/22 03:05:25;;;;;;;42.47;19.73;;;5.50;95.70;;;;;;5091235;28;20433;-76
2021/11/22 03:07:55;;;;;;;42.40;17.73;;;5.60;95.90;;;;;;5091381;28;20219;-75
2021/11/22 03:10:22;;;;;;;48.13;20.97;;;5.60;96.10;;;;;;5092164;28;20493;-75
2021/11/22 03:12:48;;;;;;;47.83;20.03;;;5.60;96.10;;;;;;5090566;28;20508;-75
2021/11/22 03:15:17;;;;;;;47.93;19.70;;;5.70;96.00;;;;;;5088396;28;20831;-76
2021/11/22 03:17:44;;;;;;;47.93;20.57;;;5.70;95.90;;;;;;5089052;28;20445;-76
2021/11/22 03:20:12;;;;;;;50.93;19.77;;;5.70;95.80;;;;;;5088614;28;20425;-76
2021/11/22 03:22:38;;;;;;;49.07;18.70;;;5.60;95.70;;;;;;5090413;28;21019;-75
2021/11/22 03:25:06;;;;;;;51.73;21.27;;;5.70;95.80;;;;;;5090776;28;20429;-75
2021/11/22 03:27:32;;;;;;;47.53;20.20;;;5.70;96.00;;;;;;5090551;28;20437;-75
2021/11/22 03:29:58;;;;;;;45.33;18.97;;;5.70;96.10;;;;;;5089486;28;20425;-76
2021/11/22 03:32:24;;;;;;;50.57;19.90;;;5.70;96.10;;;;;;5092167;28;20476;-76
2021/11/22 03:34:50;;;;;;;49.50;20.73;;;5.70;96.20;;;;;;5100649;28;20207;-77
2021/11/22 03:37:16;;;;;;;49.60;20.60;;;5.70;96.20;;;;;;5090685;28;20421;-75
2021/11/22 03:39:46;;;;;;;60.27;21.70;;;5.70;96.40;;;;;;5102966;28;20451;-74
2021/11/22 03:42:16;;;;;;;46.73;20.43;;;5.70;96.20;;;;;;5103693;28;20268;-75
2021/11/22 03:44:43;;;;;;;54.07;21.20;;;5.70;96.00;;;;;;5090003;28;20428;-76
2021/11/22 03:47:09;;;;;;;58.40;23.27;;;5.70;96.00;;;;;;5090552;28;20422;-75
2021/11/22 03:49:35;;;;;;;48.33;19.90;;;5.70;96.20;;;;;;5089305;28;20538;-74
2021/11/22 03:52:02;;;;;;;46.07;18.20;;;5.70;96.20;;;;;;5088940;28;20956;-77
2021/11/22 03:54:29;;;;;;;44.53;18.90;;;5.70;96.20;;;;;;5089744;28;20452;-75
2021/11/22 03:56:55;;;;;;;49.30;20.63;;;5.70;96.20;;;;;;5090337;28;20998;-75
2021/11/22 03:59:20;;;;;;;47.13;19.43;;;5.70;96.20;;;;;;5089970;28;20486;-75
2021/11/22 04:01:46;;;;;;;48.53;19.93;;;5.60;96.20;;;;;;5090607;28;20500;-76
2021/11/22 04:04:12;;;;;;;58.93;20.70;;;5.60;96.40;;;;;;5088191;28;20175;-75
2021/11/22 04:06:38;;;;;;;56.23;20.10;;;5.70;96.60;;;;;;5089999;28;20190;-75
2021/11/22 04:09:05;;;;;;;48.77;21.23;;;5.60;96.80;;;;;;5090340;28;20445;-75
2021/11/22 04:11:31;;;;;;;50.73;21.37;;;5.60;96.80;;;;;;5090505;28;20176;-75
2021/11/22 04:13:57;;;;;;;49.50;22.33;;;5.50;96.90;;;;;;5087832;28;20421;-75
2021/11/22 04:16:23;;;;;;;43.33;18.00;;;5.40;97.10;;;;;;5089896;28;20421;-75
2021/11/22 04:18:49;;;;;;;46.47;21.00;;;5.30;97.20;;;;;;5089939;28;20197;-74
2021/11/22 04:21:17;;;;;;;51.13;20.80;;;5.20;97.50;;;;;;5090054;28;20210;-75
2021/11/22 04:23:43;;;;;;;47.13;18.37;;;5.20;97.80;;;;;;5089331;28;21306;-75
2021/11/22 04:26:11;;;;;;;55.17;21.23;;;5.20;98.00;;;;;;5089631;28;20467;-75
2021/11/22 04:28:37;;;;;;;44.17;19.40;;;5.30;98.20;;;;;;5088264;28;20437;-75
2021/11/22 04:31:04;;;;;;;52.43;21.50;;;5.40;98.30;;;;;;5089167;28;20740;-74
2021/11/22 04:33:30;;;;;;;42.27;19.30;;;5.40;98.20;;;;;;5088804;28;20463;-74
2021/11/22 04:35:56;;;;;;;40.33;18.73;;;5.40;98.20;;;;;;5091077;28;20421;-76
2021/11/22 04:38:22;;;;;;;41.87;16.87;;;5.50;98.20;;;;;;5085627;28;20567;-75
2021/11/22 04:40:48;;;;;;;45.70;18.87;;;5.50;98.10;;;;;;5089203;28;20198;-74
2021/11/22 04:43:13;;;;;;;44.80;18.60;;;5.60;97.90;;;;;;5088865;28;20646;-74
2021/11/22 04:45:39;;;;;;;38.20;17.20;;;5.60;97.80;;;;;;5088441;28;20194;-75
2021/11/22 04:48:06;;;;;;;42.17;17.23;;;5.60;97.60;;;;;;5088942;28;20214;-74
2021/11/22 04:50:33;;;;;;;35.57;16.17;;;5.50;97.50;;;;;;5087578;28;20428;-76
2021/11/22 04:53:01;;;;;;;48.53;18.27;;;5.50;97.50;;;;;;5086620;28;20468;-76
2021/11/22 04:55:27;;;;;;;43.43;17.23;;;5.50;97.60;;;;;;5087557;28;20757;-74
2021/11/22 04:57:53;;;;;;;40.70;17.83;;;5.50;97.60;;;;;;5085099;28;20442;-75
2021/11/22 05:00:21;;;;;;;39.63;16.87;;;5.60;97.60;;;;;;5087454;28;20443;-75
2021/11/22 05:02:48;;;;;;;43.80;16.57;;;5.60;97.50;;;;;;5088992;28;20429;-76
2021/11/22 05:05:15;;;;;;;44.40;18.43;;;5.50;97.50;;;;;;5087818;28;20908;-75
2021/11/22 05:07:41;;;;;;;40.00;17.43;;;5.60;97.60;;;;;;5079514;28;20453;-74
2021/11/22 05:10:08;;;;;;;40.20;17.57;;;5.60;97.60;;;;;;5088686;28;20433;-76
2021/11/22 05:12:34;;;;;;;38.07;15.93;;;5.60;97.70;;;;;;5088220;28;20453;-76
2021/11/22 05:15:00;;;;;;;37.77;16.20;;;5.60;97.60;;;;;;5088004;28;20417;-76
2021/11/22 05:17:26;;;;;;;41.67;16.90;;;5.60;97.70;;;;;;5087802;28;20773;-75
2021/11/22 05:19:52;;;;;;;34.73;14.80;;;5.70;97.80;;;;;;5088500;28;20528;-76
2021/11/22 05:22:21;;;;;;;39.87;16.00;;;5.70;97.60;;;;;;5088458;28;20429;-76
2021/11/22 05:24:51;;;;;;;41.20;18.07;;;5.70;97.40;;;;;;5088693;28;20458;-76
2021/11/22 05:27:23;;;;;;;38.73;16.00;;;5.70;97.40;;;;;;5088145;28;20481;-76
2021/11/22 05:29:49;;;;;;;36.07;15.20;;;5.70;97.50;;;;;;5088591;28;20433;-74
2021/11/22 05:32:17;;;;;;;45.83;18.63;;;5.80;97.40;;;;;;5086939;28;20468;-76
2021/11/22 05:34:48;;;;;;;31.27;14.80;;;5.80;97.40;;;;;;5088675;28;20478;-75
2021/11/22 05:37:15;;;;;;;32.10;15.10;;;5.80;97.30;;;;;;5088969;28;20413;-75
2021/11/22 05:39:41;;;;;;;38.63;15.40;;;5.70;97.30;;;;;;5088935;28;20435;-74
2021/11/22 05:42:07;;;;;;;36.07;15.60;;;5.70;97.20;;;;;;5088474;28;20437;-74
2021/11/22 05:44:34;;;;;;;34.80;15.20;;;5.60;97.20;;;;;;5088780;28;20428;-74
2021/11/22 05:47:02;;;;;;;33.67;15.83;;;5.50;97.30;;;;;;5091385;28;20432;-74
2021/11/22 05:49:31;;;;;;;35.33;13.93;;;5.50;97.50;;;;;;5089065;28;21318;-74
2021/11/22 05:51:57;;;;;;;33.07;15.10;;;5.50;97.50;;;;;;5088033;28;20469;-75
2021/11/22 05:54:24;;;;;;;35.97;14.77;;;5.60;97.70;;;;;;5087729;28;20420;-76
2021/11/22 05:56:50;;;;;;;37.30;14.80;;;5.60;97.80;;;;;;5088177;28;20421;-76
2021/11/22 05:59:16;;;;;;;35.03;15.63;;;5.70;97.80;;;;;;5083771;28;20433;-76
2021/11/22 06:01:42;;;;;;;34.20;14.03;;;5.70;97.80;;;;;;5090358;28;20943;-75
2021/11/22 06:04:08;;;;;;;30.93;14.17;;;5.70;97.90;;;;;;5089446;28;20432;-75
2021/11/22 06:06:33;;;;;;;35.70;14.63;;;5.80;97.80;;;;;;5090853;28;20441;-76
2021/11/22 06:08:59;;;;;;;25.93;13.10;;;5.80;97.70;;;;;;5094890;28;20290;-74
2021/11/22 06:11:26;;;;;;;36.53;14.90;;;5.80;97.50;;;;;;5092440;28;20186;-75
2021/11/22 06:13:52;;;;;;;33.67;16.10;;;5.80;97.20;;;;;;5090920;28;21213;-74
2021/11/22 06:16:17;;;;;;;30.07;14.20;;;5.80;97.10;;;;;;5093429;28;20474;-75
2021/11/22 06:18:43;;;;;;;26.93;12.60;;;5.80;97.20;;;;;;5094240;28;20234;-74
2021/11/22 06:21:09;;;;;;;32.93;13.80;;;5.80;97.40;;;;;;5095688;28;20277;-75
2021/11/22 06:23:35;;;;;;;31.67;15.37;;;5.80;97.40;;;;;;5098802;28;20475;-75
2021/11/22 06:26:01;;;;;;;30.97;12.77;;;5.80;97.30;;;;;;5102539;28;20198;-75
2021/11/22 06:28:26;;;;;;;31.33;12.90;;;5.80;97.30;;;;;;5098656;28;20202;-75
2021/11/22 06:30:52;;;;;;;27.80;12.43;;;5.90;97.40;;;;;;5104839;28;20273;-73
2021/11/22 06:33:18;;;;;;;28.60;12.47;;;5.80;97.30;;;;;;5096182;28;20264;-76
2021/11/22 06:35:44;;;;;;;27.40;12.23;;;5.90;97.20;;;;;;5091824;28;20194;-76
2021/11/22 06:38:11;;;;;;;26.87;13.20;;;5.80;97.10;;;;;;5091905;28;20211;-75
2021/11/22 06:40:36;;;;;;;25.23;14.10;;;5.90;97.20;;;;;;5090383;28;20441;-75
2021/11/22 06:43:02;;;;;;;28.20;14.07;;;5.90;97.30;;;;;;5093258;28;21006;-75
2021/11/22 06:45:28;;;;;;;27.97;12.13;;;5.90;97.30;;;;;;5084729;28;20429;-76
2021/11/22 06:47:54;;;;;;;23.80;11.03;;;5.90;97.00;;;;;;5100764;28;20988;-77
2021/11/22 06:50:20;;;;;;;24.80;10.50;;;5.90;96.90;;;;;;5101960;28;20183;-74
2021/11/22 06:52:47;;;;;;;24.17;10.60;;;5.80;96.70;;;;;;5093304;28;21050;-76
2021/11/22 06:55:13;;;;;;;22.80;10.93;;;5.80;96.60;;;;;;5092496;28;20511;-75
2021/11/22 06:57:40;;;;;;;22.17;10.70;;;5.80;96.60;;;;;;5089648;28;20520;-76
2021/11/22 07:00:09;;;;;;;21.77;10.57;;;5.80;96.70;;;;;;5088699;28;20421;-74
2021/11/22 07:02:35;;;;;;;23.77;10.00;;;5.80;96.80;;;;;;5091438;28;20421;-75
2021/11/22 07:05:01;;;;;;;21.80;10.07;;;5.80;96.80;;;;;;5091716;28;21101;-75
2021/11/22 07:07:27;;;;;;;28.30;11.63;;;5.80;96.90;;;;;;5092492;28;20420;-75
2021/11/22 07:09:53;;;;;;;19.63;9.93;;;5.80;96.80;;;;;;5092088;28;20422;-76
2021/11/22 07:12:19;;;;;;;19.00;9.63;;;5.80;96.80;;;;;;5090341;28;20211;-73
2021/11/22 07:14:44;;;;;;;21.33;10.20;;;5.90;96.80;;;;;;5091002;28;20442;-75
2021/11/22 07:17:11;;;;;;;18.23;9.63;;;5.90;96.60;;;;;;5090115;28;20256;-74
2021/11/22 07:19:37;;;;;;;17.10;8.70;;;5.90;96.60;;;;;;5091602;28;20272;-75
2021/11/22 07:22:07;;;;;;;17.70;8.63;;;6.00;96.50;;;;;;5090775;28;20531;-76
2021/11/22 07:24:34;;;;;;;23.83;9.70;;;6.00;96.30;;;;;;5091141;28;20421;-75
2021/11/22 07:27:00;;;;;;;19.73;9.70;;;6.00;96.50;;;;;;5090290;28;20428;-75
2021/11/22 07:29:26;;;;;;;20.80;8.97;;;6.00;96.50;;;;;;5090288;28;20456;-76
2021/11/22 07:31:52;;;;;;;17.13;8.30;;;6.00;96.50;;;;;;5089504;28;20432;-75
2021/11/22 07:34:19;;;;;;;19.87;9.10;;;6.00;96.50;;;;;;5089592;28;20569;-75
2021/11/22 07:36:44;;;;;;;18.63;8.80;;;6.00;96.60;;;;;;5089852;28;20440;-74
2021/11/22 07:39:10;;;;;;;21.90;9.23;;;6.10;96.80;;;;;;5090122;28;20440;-76
2021/11/22 07:41:36;;;;;;;25.30;8.90;;;6.10;97.00;;;;;;5091005;28;20187;-75
2021/11/22 07:44:02;;;;;;;17.80;9.00;;;6.10;97.00;;;;;;5089094;28;20570;-75
2021/11/22 07:46:27;;;;;;;23.37;10.10;;;6.10;96.90;;;;;;5088966;28;20752;-75
2021/11/22 07:48:55;;;;;;;21.67;9.83;;;6.10;97.10;;;;;;5092028;28;20277;-74
2021/11/22 07:51:21;;;;;;;19.70;9.43;;;6.10;97.10;;;;;;5089524;28;20210;-76
2021/11/22 07:53:47;;;;;;;22.73;10.10;;;6.10;97.10;;;;;;5086961;28;20532;-75
2021/11/22 07:56:13;;;;;;;23.87;10.77;;;6.10;97.30;;;;;;5087289;28;20437;-74
2021/11/22 07:58:39;;;;;;;23.63;11.20;;;6.10;97.50;;;;;;5086133;28;20203;-75
2021/11/22 08:01:05;;;;;;;19.83;10.77;;;6.10;97.40;;;;;;5088971;28;20183;-75
2021/11/22 08:03:31;;;;;;;23.70;9.87;;;6.10;97.60;;;;;;5088197;28;20464;-75
2021/11/22 08:05:58;;;;;;;19.50;11.17;;;6.20;97.60;;;;;;5088551;28;20889;-75
2021/11/22 08:08:26;;;;;;;17.43;9.50;;;6.30;97.70;;;;;;5081401;28;20457;-76
2021/11/22 08:11:05;;;;;;;19.10;10.00;;;6.30;97.60;;;;;;5089399;28;20741;-74
2021/11/22 08:13:33;;;;;;;23.20;12.63;;;6.20;97.40;;;;;;5080232;28;20584;-73
2021/11/22 08:16:01;;;;;;;19.50;10.10;;;6.30;97.40;;;;;;5089066;28;20769;-73
2021/11/22 08:18:27;;;;;;;18.70;8.83;;;6.30;97.30;;;;;;5091603;28;20467;-75
2021/11/22 08:20:54;;;;;;;19.60;9.73;;;6.30;97.40;;;;;;5091522;28;20421;-75
2021/11/22 08:23:20;;;;;;;17.90;8.97;;;6.30;97.30;;;;;;5090962;28;20183;-73
2021/11/22 08:25:46;;;;;;;23.83;10.77;;;6.20;97.40;;;;;;5091355;28;20425;-74
2021/11/22 08:28:12;;;;;;;17.23;9.03;;;6.20;97.40;;;;;;5093328;28;20246;-75
2021/11/22 08:30:38;;;;;;;21.20;9.93;;;6.10;97.60;;;;;;5094326;28;20563;-73
2021/11/22 08:33:04;;;;;;;26.63;11.37;;;6.20;97.70;;;;;;5090637;28;20353;-74
2021/11/22 08:35:31;;;;;;;17.70;9.40;;;6.20;97.90;;;;;;5087558;28;20417;-75
2021/11/22 08:37:59;;;;;;;19.50;10.10;;;6.20;97.90;;;;;;5087996;28;20480;-74
2021/11/22 08:40:25;;;;;;;22.37;8.73;;;6.20;98.10;;;;;;5086605;28;20494;-75
2021/11/22 08:42:53;;;;;;;18.07;9.33;;;6.30;98.20;;;;;;5087476;28;20476;-75
2021/11/22 08:45:20;;;;;;;15.23;7.93;;;6.30;98.20;;;;;;5086949;28;20429;-74
2021/11/22 08:47:46;;;;;;;18.73;9.37;;;6.30;98.10;;;;;;5090046;28;20524;-74
2021/11/22 08:50:13;;;;;;;20.30;9.30;;;6.20;98.10;;;;;;5088084;28;20911;-75
2021/11/22 08:52:41;;;;;;;22.27;10.30;;;6.30;98.20;;;;;;5087782;28;20457;-75
2021/11/22 08:55:07;;;;;;;18.57;9.40;;;6.30;98.30;;;;;;5087436;28;20449;-74
2021/11/22 08:57:34;;;;;;;20.13;9.30;;;6.30;98.30;;;;;;5086934;28;20448;-74
2021/11/22 09:00:01;;;;;;;22.13;8.87;;;6.30;98.30;;;;;;5083939;28;20466;-75
2021/11/22 09:02:26;;;;;;;22.30;10.77;;;6.30;98.20;;;;;;5087614;28;20429;-75
2021/11/22 09:04:52;;;;;;;16.90;8.80;;;6.30;98.30;;;;;;5087540;28;20417;-74
2021/11/22 09:07:18;;;;;;;17.63;8.67;;;6.40;98.30;;;;;;5079614;28;20188;-75
2021/11/22 09:09:44;;;;;;;16.53;8.97;;;6.30;98.20;;;;;;5091039;28;20187;-75
2021/11/22 09:12:10;;;;;;;23.13;9.30;;;6.30;98.20;;;;;;5089511;28;20677;-75
2021/11/22 09:14:36;;;;;;;19.70;9.83;;;6.40;98.30;;;;;;5088387;28;20443;-75
2021/11/22 09:17:02;;;;;;;25.33;9.30;;;6.40;98.30;;;;;;5088660;28;20923;-75
2021/11/22 09:19:30;;;;;;;18.17;8.93;;;6.40;98.20;;;;;;5089742;28;20195;-75
2021/11/22 09:21:56;;;;;;;22.50;9.03;;;6.40;98.20;;;;;;5088964;28;20424;-74
2021/11/22 09:24:22;;;;;;;21.43;9.27;;;6.40;98.30;;;;;;5086927;28;20492;-75
2021/11/22 09:26:47;;;;;;;19.27;8.57;;;6.50;98.20;;;;;;5087390;28;20217;-75
2021/11/22 09:29:13;;;;;;;17.53;9.43;;;6.50;98.10;;;;;;5086182;28;20207;-73
2021/11/22 09:31:40;;;;;;;20.53;8.83;;;6.50;97.80;;;;;;5085654;28;20274;-75
2021/11/22 09:34:05;;;;;;;20.90;9.20;;;6.40;97.70;;;;;;5086962;28;20974;-75
2021/11/22 09:36:31;;;;;;;20.53;10.33;;;6.50;97.80;;;;;;5087402;28;20420;-75
2021/11/22 09:38:57;;;;;;;19.63;9.67;;;6.50;97.90;;;;;;5090419;28;20230;-75
2021/11/22 09:41:27;;;;;;;22.53;9.70;;;6.50;97.80;;;;;;5089592;28;20537;-74
2021/11/22 09:43:55;;;;;;;21.27;9.20;;;6.50;97.80;;;;;;5089547;28;20417;-74
2021/11/22 09:46:21;;;;;;;19.40;10.60;;;6.60;97.90;;;;;;5091352;28;21210;-74
2021/11/22 09:48:47;;;;;;;22.33;9.70;;;6.60;97.80;;;;;;5091452;28;20432;-75
2021/11/22 09:51:13;;;;;;;17.87;10.50;;;6.70;97.90;;;;;;5091703;28;20461;-74
2021/11/22 09:53:41;;;;;;;17.23;9.03;;;6.80;97.90;;;;;;5088924;28;20305;-76
2021/11/22 09:56:10;;;;;;;21.60;9.63;;;6.70;97.60;;;;;;5090897;28;20423;-75
2021/11/22 09:58:36;;;;;;;19.80;9.23;;;6.70;97.50;;;;;;5086826;28;20531;-76
2021/11/22 10:01:12;;;;;;;25.57;11.10;;;6.80;97.50;;;;;;5091204;28;20507;-76
2021/11/22 10:03:38;;;;;;;23.67;9.90;;;6.80;97.40;;;;;;5082155;28;20315;-74
2021/11/22 10:06:04;;;;;;;24.27;11.17;;;6.80;97.30;;;;;;5090404;28;20468;-76
2021/11/22 10:08:37;;;;;;;17.30;9.50;;;6.80;97.40;;;;;;5091210;28;20929;-76
2021/11/22 10:11:04;;;;;;;21.40;9.80;;;6.80;97.30;;;;;;5091121;28;20420;-76
2021/11/22 10:13:39;;;;;;;27.23;11.33;;;6.80;97.50;;;;;;5090189;28;20847;-76
2021/11/22 10:16:11;;;;;;;22.53;10.30;;;6.90;97.40;;;;;;5087898;28;20824;-74
2021/11/22 10:18:44;;;;;;;19.40;9.90;;;7.00;97.40;;;;;;5089626;28;20915;-75
2021/11/22 10:21:13;;;;;;;22.90;9.10;;;7.00;97.10;;;;;;5091162;28;20417;-76
2021/11/22 10:23:44;;;;;;;20.40;9.23;;;7.00;96.80;;;;;;5089757;28;20447;-77
2021/11/22 10:26:14;;;;;;;21.73;9.00;;;7.10;96.70;;;;;;5090713;28;20459;-76
2021/11/22 10:28:42;;;;;;;17.70;9.07;;;7.10;96.50;;;;;;5090917;28;20447;-75
2021/11/22 10:31:14;;;;;;;19.30;9.53;;;7.10;96.50;;;;;;5089593;28;20803;-76
2021/11/22 10:33:40;;;;;;;20.10;9.90;;;7.10;96.40;;;;;;5088324;28;20460;-76
2021/11/22 10:36:10;;;;;;;18.23;9.13;;;7.10;96.30;;;;;;5090334;28;21069;-76
2021/11/22 10:38:38;;;;;;;23.83;10.47;;;7.10;96.40;;;;;;5090728;28;20441;-76
2021/11/22 10:41:06;;;;;;;20.30;9.90;;;7.20;96.50;;;;;;5091376;28;20506;-74
2021/11/22 10:43:35;;;;;;;22.63;9.17;;;7.20;96.20;;;;;;5089941;28;20512;-77
2021/11/22 10:46:03;;;;;;;18.67;9.60;;;7.20;96.00;;;;;;5090483;28;21040;-76
2021/11/22 10:48:29;;;;;;;18.63;9.40;;;7.20;96.00;;;;;;5081984;28;20548;-76
2021/11/22 10:51:10;;;;;;;20.80;9.47;;;7.20;96.00;;;;;;5090124;28;20429;-75
2021/11/22 10:53:39;;;;;;;21.47;9.43;;;7.20;96.20;;;;;;5093052;28;20494;-75
2021/11/22 10:56:09;;;;;;;20.00;9.63;;;7.30;96.50;;;;;;5093914;28;20456;-75
2021/11/22 10:58:45;;;;;;;18.53;10.03;;;7.40;96.60;;;;;;5084592;28;20449;-76
2021/11/22 11:01:40;;;;;;;20.53;10.53;;;7.40;96.20;;;;;;5090385;28;20928;-74
2021/11/22 11:04:14;;;;;;;18.40;9.70;;;7.40;96.00;;;;;;5092862;28;20452;-75
2021/11/22 11:06:57;;;;;;;19.10;9.63;;;7.40;96.00;;;;;;5083905;28;20469;-76
2021/11/22 11:09:30;;;;;;;25.90;10.00;;;7.30;95.90;;;;;;5089361;28;20520;-76
2021/11/22 11:12:14;;;;;;;18.23;10.80;;;7.10;96.00;;;;;;5088378;28;20435;-75
2021/11/22 11:14:45;;;;;;;24.53;11.50;;;7.10;96.50;;;;;;5082588;28;20413;-74
2021/11/22 11:17:17;;;;;;;24.60;10.90;;;7.20;96.80;;;;;;5089839;28;20431;-74
2021/11/22 11:19:44;;;;;;;30.07;12.43;;;7.20;96.80;;;;;;5090811;28;20421;-76
2021/11/22 11:22:10;;;;;;;20.40;10.60;;;7.30;96.60;;;;;;5089656;28;21197;-75
2021/11/22 11:24:36;;;;;;;23.30;12.10;;;7.30;96.40;;;;;;5089177;28;20448;-75
2021/11/22 11:27:02;;;;;;;23.13;10.10;;;7.30;96.40;;;;;;5089424;28;20421;-75
2021/11/22 11:29:29;;;;;;;20.97;10.73;;;7.40;96.40;;;;;;5081588;28;20443;-75
2021/11/22 11:31:55;;;;;;;19.63;10.00;;;7.30;96.20;;;;;;5089394;28;20439;-74
2021/11/22 11:34:26;;;;;;;22.97;9.37;;;7.30;95.90;;;;;;5088995;28;20414;-75
2021/11/22 11:37:06;;;;;;;26.90;10.20;;;7.20;96.00;;;;;;5090853;28;20464;-75
2021/11/22 11:39:43;;;;;;;16.77;8.63;;;7.10;96.20;;;;;;5092707;28;20471;-75
2021/11/22 11:42:47;;;;;;;19.50;10.20;;;7.20;96.50;;;;;;5088827;28;20535;-76
2021/11/22 11:45:26;;;;;;;15.93;8.23;;;7.10;96.40;;;;;;5085839;28;20498;-76
2021/11/22 11:48:15;;;;;;;20.67;9.97;;;7.10;96.40;;;;;;5089506;28;20482;-75
2021/11/22 11:50:45;;;;;;;19.50;9.27;;;7.10;96.50;;;;;;5088582;28;20467;-76
2021/11/22 11:53:17;;;;;;;20.40;9.90;;;7.10;96.60;;;;;;5080247;28;20543;-76
2021/11/22 11:55:48;;;;;;;25.47;10.53;;;7.20;96.50;;;;;;5080086;28;20480;-75
2021/11/22 11:58:26;;;;;;;16.23;10.20;;;7.20;96.40;;;;;;5086111;28;20544;-76
2021/11/22 12:01:01;;;;;;;15.50;8.23;;;7.20;95.80;;;;;;5087869;28;20642;-74
2021/11/22 12:03:30;;;;;;;14.27;7.63;;;7.30;95.70;;;;;;5088945;28;20424;-75
2021/11/22 12:06:01;;;;;;;15.20;8.47;;;7.30;95.30;;;;;;5090644;28;20433;-75
2021/11/22 12:08:33;;;;;;;13.87;8.17;;;7.20;94.90;;;;;;5090877;28;20452;-75
2021/11/22 12:11:02;;;;;;;16.50;8.70;;;7.30;94.60;;;;;;5091007;28;21045;-75
2021/11/22 12:13:47;;;;;;;16.60;8.90;;;7.20;94.10;;;;;;5089846;28;20827;-76
2021/11/22 12:16:45;;;;;;;12.53;7.20;;;7.20;94.10;;;;;;5089133;28;20421;-75
2021/11/22 12:19:34;;;;;;;14.77;8.00;;;7.20;93.80;;;;;;5088931;28;20437;-75
2021/11/22 12:22:14;;;;;;;12.47;8.20;;;7.10;93.80;;;;;;5080119;28;20437;-76
2021/11/22 12:24:47;;;;;;;12.33;7.30;;;7.20;93.90;;;;;;5090522;28;20424;-75
2021/11/22 12:27:39;;;;;;;11.43;6.40;;;7.30;94.00;;;;;;5084122;28;20989;-74
2021/11/22 12:30:27;;;;;;;14.90;7.60;;;7.30;93.60;;;;;;5086558;28;20485;-76
2021/11/22 12:32:53;;;;;;;10.57;6.60;;;7.20;93.70;;;;;;5088131;28;20483;-75
2021/11/22 12:35:35;;;;;;;15.90;7.23;;;7.10;93.00;;;;;;5089086;28;20421;-75
2021/11/22 12:38:35;;;;;;;20.93;7.50;;;7.20;93.30;;;;;;5091268;28;20429;-75
2021/11/22 12:41:07;;;;;;;19.20;7.53;;;7.10;93.30;;;;;;5043009;28;20839;-77
2021/11/22 12:43:45;;;;;;;10.70;6.10;;;7.10;93.20;;;;;;5091315;28;20421;-75
2021/11/22 12:46:18;;;;;;;16.73;8.00;;;7.10;93.30;;;;;;5094327;28;20417;-76